createdAt,value
2023-05-21T00:00:42.019Z,2.05
2023-05-21T00:03:14.638Z,1.30
2023-05-21T00:05:42.344Z,1.50
2023-05-21T00:08:10.088Z,1.30
2023-05-21T00:10:37.744Z,1.23
2023-05-21T00:13:05.393Z,1.30
2023-05-21T00:15:33.231Z,1.35
2023-05-21T00:18:02.410Z,1.20
2023-05-21T00:20:32.501Z,1.40
2023-05-21T00:23:02.872Z,1.70
2023-05-21T00:25:30.547Z,1.23
2023-05-21T00:27:58.256Z,1.30
2023-05-21T00:30:25.931Z,1.47
2023-05-21T00:32:53.597Z,1.13
2023-05-21T00:35:22.633Z,1.10
2023-05-21T00:37:50.292Z,1.30
2023-05-21T00:40:19.894Z,1.35
2023-05-21T00:42:48.280Z,1.70
2023-05-21T00:45:16.024Z,1.40
2023-05-21T00:47:44.053Z,1.38
2023-05-21T00:50:14.930Z,1.48
2023-05-21T00:52:45.726Z,1.17
2023-05-21T00:55:13.585Z,1.57
2023-05-21T00:57:42.573Z,1.20
2023-05-21T01:00:10.979Z,1.50
2023-05-21T01:02:38.785Z,1.45
2023-05-21T01:05:07.177Z,1.20
2023-05-21T01:07:36.095Z,1.13
2023-05-21T01:10:06.521Z,1.20
2023-05-21T01:12:35.037Z,1.38
2023-05-21T01:15:04.107Z,1.20
2023-05-21T01:17:32.197Z,1.40
2023-05-21T01:20:00.477Z,1.30
2023-05-21T01:22:29.636Z,1.25
2023-05-21T01:24:58.918Z,1.10
2023-05-21T01:27:26.721Z,1.33
2023-05-21T01:29:54.387Z,1.33
2023-05-21T01:32:25.296Z,1.40
2023-05-21T01:34:57.011Z,1.27
2023-05-21T01:37:28.197Z,1.35
2023-05-21T01:39:57.185Z,1.58
2023-05-21T01:42:26.829Z,1.52
2023-05-21T01:44:56.378Z,1.50
2023-05-21T01:47:24.833Z,1.52
2023-05-21T01:49:52.806Z,1.30
2023-05-21T01:52:20.504Z,1.42
2023-05-21T01:54:50.005Z,1.85
2023-05-21T01:57:18.522Z,1.50
2023-05-21T01:59:47.884Z,1.30
2023-05-21T02:02:15.586Z,1.60
2023-05-21T02:04:44.177Z,1.60
2023-05-21T02:07:14.361Z,1.35
2023-05-21T02:09:42.048Z,1.30
2023-05-21T02:12:09.706Z,1.30
2023-05-21T02:14:38.449Z,1.40
2023-05-21T02:17:08.226Z,1.30
2023-05-21T02:19:35.930Z,1.50
2023-05-21T02:22:03.695Z,1.30
2023-05-21T02:24:31.381Z,1.70
2023-05-21T02:26:59.202Z,1.40
2023-05-21T02:29:26.861Z,1.60
2023-05-21T02:31:54.980Z,1.50
2023-05-21T02:34:24.897Z,1.60
2023-05-21T02:36:53.186Z,1.73
2023-05-21T02:39:21.088Z,1.40
2023-05-21T02:41:49.775Z,1.50
2023-05-21T02:44:18.946Z,1.60
2023-05-21T02:46:46.584Z,1.70
2023-05-21T02:49:14.204Z,1.90
2023-05-21T02:51:43.219Z,1.60
2023-05-21T02:54:10.915Z,1.90
2023-05-21T02:56:38.564Z,1.52
2023-05-21T02:59:06.378Z,1.70
2023-05-21T03:01:34.062Z,2.08
2023-05-21T03:04:01.811Z,1.63
2023-05-21T03:06:29.534Z,1.55
2023-05-21T03:08:58.561Z,1.70
2023-05-21T03:11:26.210Z,1.40
2023-05-21T03:13:53.854Z,1.70
2023-05-21T03:16:22.584Z,1.40
2023-05-21T03:18:50.363Z,1.65
2023-05-21T03:21:18.029Z,1.65
2023-05-21T03:23:45.701Z,1.70
2023-05-21T03:26:14.719Z,1.70
2023-05-21T03:28:42.444Z,1.77
2023-05-21T03:31:10.113Z,1.65
2023-05-21T03:33:37.819Z,1.50
2023-05-21T03:36:05.775Z,1.77
2023-05-21T03:38:34.865Z,1.73
2023-05-21T03:41:03.590Z,1.92
2023-05-21T03:43:32.606Z,1.88
2023-05-21T03:46:00.396Z,1.70
2023-05-21T03:48:28.114Z,1.60
2023-05-21T03:50:56.116Z,1.70
2023-05-21T03:53:23.789Z,1.55
2023-05-21T03:55:55.265Z,1.83
2023-05-21T03:58:23.179Z,1.60
2023-05-21T04:00:52.190Z,1.70
2023-05-21T04:03:20.008Z,1.73
2023-05-21T04:05:48.693Z,1.70
2023-05-21T04:08:16.376Z,1.92
2023-05-21T04:10:44.097Z,1.73
2023-05-21T04:13:11.786Z,1.80
2023-05-21T04:15:40.017Z,1.58
2023-05-21T04:18:09.125Z,1.70
2023-05-21T04:20:36.824Z,1.40
2023-05-21T04:23:04.513Z,2.25
2023-05-21T04:25:32.160Z,1.83
2023-05-21T04:27:59.954Z,1.60
2023-05-21T04:30:27.673Z,1.73
2023-05-21T04:32:55.594Z,1.88
2023-05-21T04:35:24.687Z,1.73
2023-05-21T04:37:54.940Z,1.70
2023-05-21T04:40:24.515Z,1.80
2023-05-21T04:42:52.161Z,1.80
2023-05-21T04:45:19.925Z,1.67
2023-05-21T04:47:48.164Z,2.15
2023-05-21T04:50:15.832Z,1.77
2023-05-21T04:52:45.615Z,1.88
2023-05-21T04:55:13.357Z,1.83
2023-05-21T04:57:40.983Z,1.90
2023-05-21T05:00:09.277Z,1.85
2023-05-21T05:02:36.950Z,2.40
2023-05-21T05:05:04.819Z,2.33
2023-05-21T05:07:32.536Z,2.10
2023-05-21T05:10:02.118Z,2.10
2023-05-21T05:12:29.795Z,2.10
2023-05-21T05:14:57.418Z,2.00
2023-05-21T05:17:25.684Z,2.20
2023-05-21T05:19:53.461Z,2.20
2023-05-21T05:22:21.092Z,1.92
2023-05-21T05:24:48.739Z,2.20
2023-05-21T05:27:17.888Z,2.63
2023-05-21T05:29:46.140Z,2.35
2023-05-21T05:32:14.089Z,2.25
2023-05-21T05:34:42.649Z,2.33
2023-05-21T05:37:10.281Z,2.50
2023-05-21T05:39:37.993Z,2.20
2023-05-21T05:42:05.930Z,2.13
2023-05-21T05:44:34.962Z,2.10
2023-05-21T05:47:02.640Z,2.45
2023-05-21T05:49:30.386Z,2.40
2023-05-21T05:51:58.006Z,2.40
2023-05-21T05:54:25.671Z,2.53
2023-05-21T05:56:53.363Z,2.40
2023-05-21T05:59:21.058Z,2.30
2023-05-21T06:01:50.155Z,2.65
2023-05-21T06:04:17.829Z,2.70
2023-05-21T06:06:46.139Z,2.50
2023-05-21T06:09:13.801Z,2.47
2023-05-21T06:11:41.467Z,3.10
2023-05-21T06:14:09.105Z,2.70
2023-05-21T06:16:37.345Z,2.50
2023-05-21T06:19:06.563Z,2.70
2023-05-21T06:21:34.351Z,3.30
2023-05-21T06:24:01.989Z,3.03
2023-05-21T06:26:29.695Z,3.33
2023-05-21T06:28:57.636Z,3.10
2023-05-21T06:31:25.308Z,2.85
2023-05-21T06:33:53.401Z,3.03
2023-05-21T06:36:22.596Z,3.17
2023-05-21T06:38:50.238Z,2.92
2023-05-21T06:41:18.038Z,2.60
2023-05-21T06:43:45.666Z,2.70
2023-05-21T06:46:13.447Z,2.72
2023-05-21T06:48:41.272Z,3.15
2023-05-21T06:51:08.922Z,3.10
2023-05-21T06:53:37.949Z,2.83
2023-05-21T06:56:05.968Z,3.25
2023-05-21T06:58:33.644Z,3.00
2023-05-21T07:01:01.398Z,3.20
2023-05-21T07:03:29.177Z,3.15
2023-05-21T07:05:56.955Z,2.80
2023-05-21T07:08:24.633Z,2.95
2023-05-21T07:10:53.648Z,3.47
2023-05-21T07:13:21.325Z,3.10
2023-05-21T07:15:49.125Z,2.85
2023-05-21T07:18:16.884Z,3.23
2023-05-21T07:20:44.515Z,3.05
2023-05-21T07:23:12.143Z,3.50
2023-05-21T07:25:39.769Z,3.30
2023-05-21T07:28:08.770Z,3.25
2023-05-21T07:30:36.591Z,3.17
2023-05-21T07:33:04.293Z,3.25
2023-05-21T07:35:31.986Z,3.25
2023-05-21T07:37:59.655Z,3.17
2023-05-21T07:40:27.299Z,3.70
2023-05-21T07:42:55.168Z,3.50
2023-05-21T07:45:24.173Z,3.35
2023-05-21T07:47:51.817Z,3.40
2023-05-21T07:50:21.068Z,3.10
2023-05-21T07:52:48.747Z,3.78
2023-05-21T07:55:16.472Z,3.57
2023-05-21T07:57:45.409Z,3.83
2023-05-21T08:00:14.304Z,3.33
2023-05-21T08:02:43.412Z,4.20
2023-05-21T08:05:11.537Z,4.10
2023-05-21T08:07:39.389Z,4.17
2023-05-21T08:10:07.752Z,3.97
2023-05-21T08:12:35.480Z,4.20
2023-05-21T08:15:03.153Z,3.80
2023-05-21T08:17:30.837Z,3.60
2023-05-21T08:19:59.846Z,4.10
2023-05-21T08:22:27.444Z,4.47
2023-05-21T08:24:55.067Z,4.95
2023-05-21T08:27:22.730Z,3.90
2023-05-21T08:29:50.385Z,4.22
2023-05-21T08:32:18.147Z,4.03
2023-05-21T08:34:45.790Z,4.53
2023-05-21T08:37:14.763Z,4.63
2023-05-21T08:39:42.417Z,4.35
2023-05-21T08:42:13.171Z,4.13
2023-05-21T08:44:46.526Z,4.40
2023-05-21T08:47:17.242Z,4.70
2023-05-21T08:49:45.596Z,4.50
2023-05-21T08:52:14.771Z,5.00
2023-05-21T08:54:42.547Z,5.38
2023-05-21T08:57:10.980Z,5.00
2023-05-21T08:59:43.290Z,4.63
2023-05-21T09:02:12.586Z,5.50
2023-05-21T09:04:40.517Z,5.55
2023-05-21T09:07:08.308Z,4.65
2023-05-21T09:09:45.467Z,4.13
2023-05-21T09:12:13.114Z,4.22
2023-05-21T09:14:41.570Z,4.60
2023-05-21T09:17:09.252Z,4.43
2023-05-21T09:19:37.058Z,5.05
2023-05-21T09:22:05.027Z,4.73
2023-05-21T09:24:35.716Z,4.80
2023-05-21T09:27:07.524Z,4.68
2023-05-21T09:29:35.176Z,4.65
2023-05-21T09:32:07.306Z,4.85
2023-05-21T09:34:37.115Z,4.00
2023-05-21T09:37:06.551Z,5.30
2023-05-21T09:39:36.973Z,5.32
2023-05-21T09:42:06.193Z,5.38
2023-05-21T09:44:34.185Z,5.55
2023-05-21T09:47:03.125Z,5.33
2023-05-21T09:49:31.440Z,5.70
2023-05-21T09:51:59.478Z,5.40
2023-05-21T09:54:32.089Z,5.10
2023-05-21T09:57:01.314Z,5.88
2023-05-21T09:59:37.818Z,5.40
2023-05-21T10:02:11.774Z,5.18
2023-05-21T10:04:39.544Z,5.97
2023-05-21T10:07:07.572Z,5.80
2023-05-21T10:09:35.244Z,6.10
2023-05-21T10:12:03.103Z,5.50
2023-05-21T10:14:31.921Z,5.43
2023-05-21T10:17:01.547Z,5.75
2023-05-21T10:19:31.971Z,6.00
2023-05-21T10:22:01.514Z,5.47
2023-05-21T10:24:29.600Z,5.63
2023-05-21T10:26:57.481Z,5.68
2023-05-21T10:29:25.350Z,5.90
2023-05-21T10:31:53.624Z,5.47
2023-05-21T10:34:23.684Z,6.03
2023-05-21T10:36:52.088Z,5.83
2023-05-21T10:39:20.979Z,5.10
2023-05-21T10:41:54.180Z,5.40
2023-05-21T10:44:28.109Z,5.90
2023-05-21T10:47:01.752Z,5.90
2023-05-21T10:49:44.336Z,5.40
2023-05-21T10:52:21.301Z,5.65
2023-05-21T10:54:54.472Z,5.13
2023-05-21T10:57:36.931Z,5.80
2023-05-21T11:00:06.123Z,5.47
2023-05-21T11:02:34.019Z,5.43
2023-05-21T11:05:04.193Z,5.38
2023-05-21T11:07:58.725Z,5.40
2023-05-21T11:10:34.025Z,5.65
2023-05-21T11:13:14.561Z,5.65
2023-05-21T11:16:01.408Z,4.90
2023-05-21T11:18:57.975Z,5.40
2023-05-21T11:21:30.658Z,5.38
2023-05-21T11:24:01.125Z,5.82
2023-05-21T11:26:29.474Z,5.75
2023-05-21T11:29:14.978Z,4.90
2023-05-21T11:31:46.625Z,6.05
2023-05-21T11:34:14.658Z,6.20
2023-05-21T11:36:45.555Z,5.30
2023-05-21T11:39:15.526Z,6.10
2023-05-21T11:41:53.343Z,5.70
2023-05-21T11:44:22.782Z,5.55
2023-05-21T11:46:50.468Z,5.82
2023-05-21T11:49:18.258Z,5.50
2023-05-21T11:51:48.272Z,5.22
2023-05-21T11:54:17.856Z,5.60
2023-05-21T12:00:21.721Z,5.22
2023-05-21T12:02:51.880Z,4.97
2023-05-21T12:05:19.741Z,5.20
2023-05-21T12:07:52.319Z,5.20
2023-05-21T12:10:22.350Z,5.38
2023-05-21T12:12:54.939Z,5.82
2023-05-21T12:15:24.884Z,5.47
2023-05-21T12:17:53.306Z,5.03
2023-05-21T12:20:21.230Z,5.00
2023-05-21T12:22:51.206Z,5.30
2023-05-21T12:25:20.227Z,5.32
2023-05-21T12:27:48.410Z,5.30
2023-05-21T12:30:16.129Z,5.07
2023-05-21T12:32:44.999Z,4.80
2023-05-21T12:35:21.686Z,4.93
2023-05-21T12:37:50.659Z,5.10
2023-05-21T12:40:20.124Z,4.85
2023-05-21T12:42:47.966Z,5.25
2023-05-21T12:45:18.434Z,4.70
2023-05-21T12:47:49.185Z,4.80
2023-05-21T12:50:21.041Z,4.88
2023-05-21T12:52:48.780Z,4.93
2023-05-21T12:55:16.502Z,5.22
2023-05-21T12:57:45.872Z,5.17
2023-05-21T13:00:14.393Z,4.97
2023-05-21T13:02:43.121Z,4.70
2023-05-21T13:05:16.491Z,5.05
2023-05-21T13:07:47.146Z,5.00
2023-05-21T13:10:16.437Z,4.97
2023-05-21T13:12:45.996Z,4.78
2023-05-21T13:15:13.710Z,5.10
2023-05-21T13:17:41.432Z,4.63
2023-05-21T13:20:12.223Z,4.82
2023-05-21T13:22:42.506Z,4.70
2023-05-21T13:25:11.047Z,5.32
2023-05-21T13:27:38.701Z,5.03
2023-05-21T13:30:08.737Z,5.13
2023-05-21T13:32:36.917Z,4.55
2023-05-21T13:35:04.996Z,5.10
2023-05-21T13:37:32.630Z,5.28
2023-05-21T13:40:00.315Z,4.70
2023-05-21T13:42:27.988Z,5.00
2023-05-21T13:44:55.606Z,5.40
2023-05-21T13:47:24.674Z,5.20
2023-05-21T13:49:52.485Z,5.45
2023-05-21T13:52:21.384Z,4.78
2023-05-21T13:54:49.033Z,5.20
2023-05-21T13:57:16.765Z,4.78
2023-05-21T13:59:44.396Z,5.07
2023-05-21T14:02:12.290Z,4.88
2023-05-21T14:04:41.426Z,4.95
2023-05-21T14:07:09.297Z,4.80
2023-05-21T14:09:37.357Z,5.30
2023-05-21T14:12:06.625Z,5.40
2023-05-21T14:14:34.433Z,4.93
2023-05-21T14:17:02.092Z,5.30
2023-05-21T14:19:29.883Z,5.15
2023-05-21T14:21:59.934Z,5.38
2023-05-21T14:24:27.590Z,5.00
2023-05-21T14:26:55.196Z,4.97
2023-05-21T14:29:22.904Z,4.78
2023-05-21T14:31:50.700Z,4.95
2023-05-21T14:34:18.523Z,4.78
2023-05-21T14:36:46.210Z,4.60
2023-05-21T14:39:15.466Z,5.00
2023-05-21T14:41:43.086Z,4.90
2023-05-21T14:44:10.743Z,5.20
2023-05-21T14:46:39.598Z,4.63
2023-05-21T14:49:07.388Z,4.57
2023-05-21T14:51:35.002Z,4.65
2023-05-21T14:54:02.641Z,4.82
2023-05-21T14:56:31.651Z,4.78
2023-05-21T14:58:59.392Z,5.20
2023-05-21T15:01:27.035Z,4.67
2023-05-21T15:03:56.129Z,4.95
2023-05-21T15:06:23.900Z,5.10
2023-05-21T15:08:51.552Z,5.00
2023-05-21T15:11:19.189Z,5.07
2023-05-21T15:13:48.208Z,4.90
2023-05-21T15:16:17.355Z,4.82
2023-05-21T15:18:47.204Z,5.78
2023-05-21T15:21:14.866Z,5.05
2023-05-21T15:23:42.527Z,5.60
2023-05-21T15:26:10.215Z,5.40
2023-05-21T15:28:37.874Z,6.07
2023-05-21T15:31:06.891Z,5.45
2023-05-21T15:33:34.538Z,5.50
2023-05-21T15:36:02.214Z,6.07
2023-05-21T15:38:29.912Z,5.37
2023-05-21T15:40:58.183Z,5.20
2023-05-21T15:43:25.814Z,5.60
2023-05-21T15:45:53.682Z,5.15
2023-05-21T15:48:23.070Z,5.20
2023-05-21T15:50:51.013Z,5.30
2023-05-21T15:53:18.633Z,5.55
2023-05-21T15:55:46.261Z,4.78
2023-05-21T15:58:13.830Z,5.47
2023-05-21T16:00:41.440Z,5.38
2023-05-21T16:03:09.190Z,5.47
2023-05-21T16:05:38.628Z,5.35
2023-05-21T16:08:06.477Z,5.45
2023-05-21T16:10:34.215Z,5.65
2023-05-21T16:13:01.853Z,5.97
2023-05-21T16:15:32.330Z,5.57
2023-05-21T16:18:00.031Z,5.53
2023-05-21T16:20:27.687Z,5.50
2023-05-21T16:22:56.700Z,5.50
2023-05-21T16:25:24.314Z,5.75
2023-05-21T16:27:52.004Z,5.83
2023-05-21T16:30:19.757Z,5.35
2023-05-21T16:32:47.439Z,6.25
2023-05-21T16:35:15.091Z,6.07
2023-05-21T16:37:42.762Z,6.30
2023-05-21T16:40:12.761Z,5.40
2023-05-21T16:42:40.911Z,6.40
2023-05-21T16:45:09.193Z,5.93
2023-05-21T16:47:36.937Z,5.57
2023-05-21T16:50:05.138Z,6.15
2023-05-21T16:52:33.000Z,5.50
2023-05-21T16:55:01.233Z,6.15
2023-05-21T16:57:30.326Z,5.82
2023-05-21T16:59:58.001Z,5.80
2023-05-21T17:02:25.938Z,5.43
2023-05-21T17:04:53.716Z,5.50
2023-05-21T17:07:21.461Z,5.88
2023-05-21T17:09:49.237Z,6.90
2023-05-21T17:12:17.195Z,6.32
2023-05-21T17:14:46.400Z,6.13
2023-05-21T17:17:14.139Z,5.70
2023-05-21T17:19:43.867Z,5.35
2023-05-21T17:22:12.272Z,5.60
2023-05-21T17:24:39.922Z,5.57
2023-05-21T17:27:07.683Z,6.07
2023-05-21T17:29:35.573Z,6.33
2023-05-21T17:32:05.122Z,5.88
2023-05-21T17:34:32.822Z,5.90
2023-05-21T17:37:00.659Z,5.80
2023-05-21T17:39:28.278Z,5.53
2023-05-21T17:41:56.609Z,5.97
2023-05-21T17:44:24.324Z,6.22
2023-05-21T17:46:52.096Z,6.28
2023-05-21T17:49:21.378Z,6.55
2023-05-21T17:51:49.257Z,6.03
2023-05-21T17:54:17.004Z,6.30
2023-05-21T17:56:46.551Z,6.57
2023-05-21T17:59:14.964Z,6.22
2023-05-21T18:01:42.648Z,6.55
2023-05-21T18:04:12.195Z,7.15
2023-05-21T18:06:41.390Z,6.70
2023-05-21T18:09:10.597Z,6.70
2023-05-21T18:11:38.382Z,7.00
2023-05-21T18:14:06.020Z,7.07
2023-05-21T18:16:33.800Z,6.78
2023-05-21T18:19:05.987Z,7.47
2023-05-21T18:21:34.737Z,7.00
2023-05-21T18:24:03.925Z,7.07
2023-05-21T18:26:31.675Z,6.72
2023-05-21T18:28:59.380Z,7.35
2023-05-21T18:31:27.261Z,7.27
2023-05-21T18:33:55.079Z,7.03
2023-05-21T18:36:22.780Z,7.38
2023-05-21T18:38:50.887Z,6.95
2023-05-21T18:41:20.213Z,7.38
2023-05-21T18:43:47.896Z,7.57
2023-05-21T18:46:15.667Z,7.60
2023-05-21T18:48:43.378Z,7.75
2023-05-21T18:51:11.037Z,7.38
2023-05-21T18:53:39.266Z,7.72
2023-05-21T18:56:07.520Z,7.70
2023-05-21T18:58:38.045Z,7.45
2023-05-21T19:01:06.011Z,7.35
2023-05-21T19:03:33.793Z,7.20
2023-05-21T19:06:01.455Z,7.45
2023-05-21T19:08:29.071Z,7.33
2023-05-21T19:10:56.697Z,7.50
2023-05-21T19:13:24.443Z,7.43
2023-05-21T19:15:53.498Z,7.45
2023-05-21T19:18:21.224Z,7.38
2023-05-21T19:20:49.023Z,7.63
2023-05-21T19:23:16.918Z,7.70
2023-05-21T19:25:44.644Z,7.97
2023-05-21T19:28:12.563Z,7.63
2023-05-21T19:30:40.572Z,7.80
2023-05-21T19:33:09.746Z,7.70
2023-05-21T19:35:37.822Z,7.68
2023-05-21T19:38:05.687Z,8.00
2023-05-21T19:40:33.464Z,7.93
2023-05-21T19:43:01.303Z,8.52
2023-05-21T19:45:29.389Z,8.50
2023-05-21T19:47:57.164Z,8.40
2023-05-21T19:50:28.660Z,9.43
2023-05-21T19:52:57.656Z,8.82
2023-05-21T19:55:25.372Z,8.25
2023-05-21T19:57:53.149Z,8.17
2023-05-21T20:00:21.115Z,8.48
2023-05-21T20:02:48.953Z,9.00
2023-05-21T20:05:16.579Z,8.73
2023-05-21T20:07:45.643Z,8.98
2023-05-21T20:10:13.596Z,8.80
2023-05-21T20:12:41.220Z,9.55
2023-05-21T20:15:09.231Z,9.50
2023-05-21T20:17:39.768Z,7.78
2023-05-21T20:20:11.240Z,9.65
2023-05-21T20:22:38.901Z,8.50
2023-05-21T20:25:08.805Z,9.93
2023-05-21T20:27:38.631Z,9.63
2023-05-21T20:30:07.486Z,9.60
2023-05-21T20:32:35.236Z,9.75
2023-05-21T20:35:03.954Z,9.70
2023-05-21T20:37:33.900Z,9.65
2023-05-21T20:40:01.568Z,9.90
2023-05-21T20:42:34.628Z,9.82
2023-05-21T20:45:03.100Z,10.13
2023-05-21T20:47:30.940Z,9.80
2023-05-21T20:49:58.790Z,9.82
2023-05-21T20:52:26.857Z,9.68
2023-05-21T20:54:55.091Z,9.90
2023-05-21T20:57:23.993Z,9.98
2023-05-21T20:59:53.505Z,9.90
2023-05-21T21:02:21.348Z,9.90
2023-05-21T21:04:49.923Z,10.13
2023-05-21T21:07:19.073Z,9.68
2023-05-21T21:09:46.810Z,10.02
2023-05-21T21:12:25.417Z,10.17
2023-05-21T21:14:55.839Z,9.85
2023-05-21T21:17:23.758Z,10.02
2023-05-21T21:19:51.388Z,9.90
2023-05-21T21:22:19.086Z,10.27
2023-05-21T21:24:46.705Z,9.70
2023-05-21T21:27:14.358Z,9.88
2023-05-21T21:29:41.982Z,10.88
2023-05-21T21:32:10.998Z,10.48
2023-05-21T21:34:38.638Z,10.43
2023-05-21T21:37:06.405Z,10.00
2023-05-21T21:39:34.006Z,10.50
2023-05-21T21:42:01.651Z,10.30
2023-05-21T21:44:29.335Z,10.23
2023-05-21T21:46:56.965Z,9.98
2023-05-21T21:49:25.976Z,10.20
2023-05-21T21:51:57.625Z,10.45
2023-05-21T21:54:25.314Z,10.95
2023-05-21T21:56:52.929Z,10.07
2023-05-21T21:59:20.673Z,10.02
2023-05-21T22:01:49.165Z,10.87
2023-05-21T22:04:16.930Z,10.45
2023-05-21T22:06:46.808Z,10.73
2023-05-21T22:09:14.487Z,9.98
2023-05-21T22:11:42.142Z,9.90
2023-05-21T22:14:11.627Z,10.27
2023-05-21T22:16:41.536Z,10.63
2023-05-21T22:19:10.076Z,10.20
2023-05-21T22:21:37.975Z,10.07
2023-05-21T22:24:10.982Z,10.82
2023-05-21T22:26:42.696Z,10.33
2023-05-21T22:29:10.380Z,10.50
2023-05-21T22:31:38.193Z,10.40
2023-05-21T22:34:05.913Z,10.40
2023-05-21T22:36:33.515Z,10.52
2023-05-21T22:39:01.139Z,10.43
2023-05-21T22:41:30.168Z,10.88
2023-05-21T22:43:57.793Z,9.73
2023-05-21T22:46:25.590Z,10.63
2023-05-21T22:48:53.947Z,10.43
2023-05-21T22:51:22.200Z,9.87
2023-05-21T22:53:49.827Z,10.50
2023-05-21T22:56:17.515Z,9.77
2023-05-21T22:58:46.513Z,8.95
2023-05-21T23:01:14.237Z,9.60
2023-05-21T23:03:41.837Z,9.77
2023-05-21T23:06:09.561Z,9.43
2023-05-21T23:08:37.233Z,9.68
2023-05-21T23:11:04.861Z,9.95
2023-05-21T23:13:32.503Z,10.10
2023-05-21T23:16:01.676Z,9.60
2023-05-21T23:18:29.389Z,9.60
2023-05-21T23:20:57.181Z,9.60
2023-05-21T23:23:24.961Z,9.60
2023-05-21T23:25:53.171Z,9.60
2023-05-21T23:28:20.878Z,9.73
2023-05-21T23:30:48.525Z,9.68
2023-05-21T23:33:17.536Z,8.85
2023-05-21T23:35:45.137Z,9.32
2023-05-21T23:38:12.781Z,9.23
2023-05-21T23:40:40.634Z,8.33
2023-05-21T23:43:08.394Z,9.70
2023-05-21T23:45:36.133Z,8.70
2023-05-21T23:48:03.975Z,9.48
2023-05-21T23:50:33.027Z,8.77
2023-05-21T23:53:00.725Z,9.03
2023-05-21T23:55:28.340Z,8.63
2023-05-21T23:57:55.973Z,8.68
